sensor_id;sensor_type;location;lat;lon;timestamp;temperature;humidity
32660;DHT22;19064;47.912;12.308;2024-03-08T00:00:09;0.50;99.90
32660;DHT22;19064;47.912;12.308;2024-03-08T00:02:39;0.40;99.90
32660;DHT22;19064;47.912;12.308;2024-03-08T00:05:07;0.40;99.90
32660;DHT22;19064;47.912;12.308;2024-03-08T00:07:34;0.40;99.90
32660;DHT22;19064;47.912;12.308;2024-03-08T00:10:01;0.40;99.90
32660;DHT22;19064;47.912;12.308;2024-03-08T00:12:28;0.30;99.90
32660;DHT22;19064;47.912;12.308;2024-03-08T00:14:56;0.30;99.90
32660;DHT22;19064;47.912;12.308;2024-03-08T00:17:23;0.30;99.90
32660;DHT22;19064;47.912;12.308;2024-03-08T00:19:51;0.30;99.90
32660;DHT22;19064;47.912;12.308;2024-03-08T00:22:18;0.40;99.90
32660;DHT22;19064;47.912;12.308;2024-03-08T00:24:45;0.40;99.90
32660;DHT22;19064;47.912;12.308;2024-03-08T00:27:12;0.30;99.90
32660;DHT22;19064;47.912;12.308;2024-03-08T00:29:38;0.30;99.90
32660;DHT22;19064;47.912;12.308;2024-03-08T00:32:05;0.40;99.90
32660;DHT22;19064;47.912;12.308;2024-03-08T00:34:35;0.30;99.90
32660;DHT22;19064;47.912;12.308;2024-03-08T00:37:03;0.30;99.90
32660;DHT22;19064;47.912;12.308;2024-03-08T00:39:30;0.30;99.90
32660;DHT22;19064;47.912;12.308;2024-03-08T00:41:56;0.30;99.90
32660;DHT22;19064;47.912;12.308;2024-03-08T00:44:23;0.30;99.90
32660;DHT22;19064;47.912;12.308;2024-03-08T00:46:50;0.30;99.90
32660;DHT22;19064;47.912;12.308;2024-03-08T00:49:16;0.20;99.90
32660;DHT22;19064;47.912;12.308;2024-03-08T00:51:43;0.30;99.90
32660;DHT22;19064;47.912;12.308;2024-03-08T00:54:11;0.20;99.90
32660;DHT22;19064;47.912;12.308;2024-03-08T00:56:38;0.20;99.90
32660;DHT22;19064;47.912;12.308;2024-03-08T00:59:04;0.20;99.90
32660;DHT22;19064;47.912;12.308;2024-03-08T01:01:33;0.20;99.90
32660;DHT22;19064;47.912;12.308;2024-03-08T01:03:59;0.20;99.90
32660;DHT22;19064;47.912;12.308;2024-03-08T01:06:26;0.20;99.90
32660;DHT22;19064;47.912;12.308;2024-03-08T01:08:53;0.30;99.90
32660;DHT22;19064;47.912;12.308;2024-03-08T01:11:21;0.30;99.90
32660;DHT22;19064;47.912;12.308;2024-03-08T01:13:48;0.20;99.90
32660;DHT22;19064;47.912;12.308;2024-03-08T01:16:15;0.20;99.90
32660;DHT22;19064;47.912;12.308;2024-03-08T01:18:43;0.20;99.90
32660;DHT22;19064;47.912;12.308;2024-03-08T01:21:10;0.20;99.90
32660;DHT22;19064;47.912;12.308;2024-03-08T01:23:36;0.20;99.90
32660;DHT22;19064;47.912;12.308;2024-03-08T01:26:03;0.20;99.90
32660;DHT22;19064;47.912;12.308;2024-03-08T01:28:31;0.10;99.90
32660;DHT22;19064;47.912;12.308;2024-03-08T01:31:00;0.10;99.90
32660;DHT22;19064;47.912;12.308;2024-03-08T01:33:31;0.10;99.90
32660;DHT22;19064;47.912;12.308;2024-03-08T01:35:58;0.10;99.90
32660;DHT22;19064;47.912;12.308;2024-03-08T01:38:25;0.10;99.90
32660;DHT22;19064;47.912;12.308;2024-03-08T01:40:51;0.10;99.90
32660;DHT22;19064;47.912;12.308;2024-03-08T01:43:19;0.10;99.90
32660;DHT22;19064;47.912;12.308;2024-03-08T01:45:47;0.10;99.90
32660;DHT22;19064;47.912;12.308;2024-03-08T01:48:15;0.10;99.90
32660;DHT22;19064;47.912;12.308;2024-03-08T01:50:43;0.00;99.90
32660;DHT22;19064;47.912;12.308;2024-03-08T01:53:10;0.00;99.90
32660;DHT22;19064;47.912;12.308;2024-03-08T01:55:38;0.00;99.90
32660;DHT22;19064;47.912;12.308;2024-03-08T01:58:06;0.00;99.90
32660;DHT22;19064;47.912;12.308;2024-03-08T02:00:33;0.00;99.90
32660;DHT22;19064;47.912;12.308;2024-03-08T02:03:02;0.00;99.90
32660;DHT22;19064;47.912;12.308;2024-03-08T02:05:29;-0.10;99.90
32660;DHT22;19064;47.912;12.308;2024-03-08T02:07:56;-0.10;99.90
32660;DHT22;19064;47.912;12.308;2024-03-08T02:10:23;-0.10;99.90
32660;DHT22;19064;47.912;12.308;2024-03-08T02:12:50;-0.10;99.90
32660;DHT22;19064;47.912;12.308;2024-03-08T02:15:17;-0.10;99.90
32660;DHT22;19064;47.912;12.308;2024-03-08T02:17:45;-0.10;99.90
32660;DHT22;19064;47.912;12.308;2024-03-08T02:20:13;-0.20;99.90
32660;DHT22;19064;47.912;12.308;2024-03-08T02:22:41;-0.20;99.90
32660;DHT22;19064;47.912;12.308;2024-03-08T02:25:08;-0.20;99.90
32660;DHT22;19064;47.912;12.308;2024-03-08T02:27:35;-0.30;99.90
32660;DHT22;19064;47.912;12.308;2024-03-08T02:30:02;-0.30;99.90
32660;DHT22;19064;47.912;12.308;2024-03-08T02:32:30;-0.20;99.90
32660;DHT22;19064;47.912;12.308;2024-03-08T02:34:58;-0.30;99.90
32660;DHT22;19064;47.912;12.308;2024-03-08T02:37:25;-0.30;99.90
32660;DHT22;19064;47.912;12.308;2024-03-08T02:39:55;-0.40;99.90
32660;DHT22;19064;47.912;12.308;2024-03-08T02:42:21;-0.40;99.90
32660;DHT22;19064;47.912;12.308;2024-03-08T02:44:48;-0.40;99.90
32660;DHT22;19064;47.912;12.308;2024-03-08T02:47:15;-0.40;99.90
32660;DHT22;19064;47.912;12.308;2024-03-08T02:49:42;-0.50;99.90
32660;DHT22;19064;47.912;12.308;2024-03-08T02:52:08;-0.40;99.90
32660;DHT22;19064;47.912;12.308;2024-03-08T02:54:35;-0.40;99.90
32660;DHT22;19064;47.912;12.308;2024-03-08T02:57:03;-0.50;99.90
32660;DHT22;19064;47.912;12.308;2024-03-08T02:59:32;-0.50;99.90
32660;DHT22;19064;47.912;12.308;2024-03-08T03:01:59;-0.50;99.90
32660;DHT22;19064;47.912;12.308;2024-03-08T03:04:26;-0.50;99.90
32660;DHT22;19064;47.912;12.308;2024-03-08T03:06:53;-0.50;99.90
32660;DHT22;19064;47.912;12.308;2024-03-08T03:09:20;-0.60;99.90
32660;DHT22;19064;47.912;12.308;2024-03-08T03:11:53;-0.60;99.90
32660;DHT22;19064;47.912;12.308;2024-03-08T03:14:21;-0.60;99.90
32660;DHT22;19064;47.912;12.308;2024-03-08T03:16:48;-0.60;99.90
32660;DHT22;19064;47.912;12.308;2024-03-08T03:19:15;-0.50;99.90
32660;DHT22;19064;47.912;12.308;2024-03-08T03:21:42;-0.50;99.90
32660;DHT22;19064;47.912;12.308;2024-03-08T03:24:09;-0.50;99.90
32660;DHT22;19064;47.912;12.308;2024-03-08T03:26:36;-0.50;99.90
32660;DHT22;19064;47.912;12.308;2024-03-08T03:29:04;-0.50;99.90
32660;DHT22;19064;47.912;12.308;2024-03-08T03:31:35;-0.50;99.90
32660;DHT22;19064;47.912;12.308;2024-03-08T03:34:02;-0.50;99.90
32660;DHT22;19064;47.912;12.308;2024-03-08T03:36:29;-0.50;99.90
32660;DHT22;19064;47.912;12.308;2024-03-08T03:38:56;-0.50;99.90
32660;DHT22;19064;47.912;12.308;2024-03-08T03:41:32;-0.50;99.90
32660;DHT22;19064;47.912;12.308;2024-03-08T03:43:59;-0.50;99.90
32660;DHT22;19064;47.912;12.308;2024-03-08T03:46:26;-0.50;99.90
32660;DHT22;19064;47.912;12.308;2024-03-08T03:48:54;-0.60;99.90
32660;DHT22;19064;47.912;12.308;2024-03-08T03:51:21;-0.60;99.90
32660;DHT22;19064;47.912;12.308;2024-03-08T03:53:48;-0.60;99.90
32660;DHT22;19064;47.912;12.308;2024-03-08T03:56:15;-0.60;99.90
32660;DHT22;19064;47.912;12.308;2024-03-08T03:58:42;-0.60;99.90
32660;DHT22;19064;47.912;12.308;2024-03-08T04:01:09;-0.60;99.90
32660;DHT22;19064;47.912;12.308;2024-03-08T04:03:36;-0.60;99.90
32660;DHT22;19064;47.912;12.308;2024-03-08T04:06:04;-0.70;99.90
32660;DHT22;19064;47.912;12.308;2024-03-08T04:08:31;-0.70;99.90
32660;DHT22;19064;47.912;12.308;2024-03-08T04:11:00;-0.70;99.90
32660;DHT22;19064;47.912;12.308;2024-03-08T04:13:26;-0.70;99.90
32660;DHT22;19064;47.912;12.308;2024-03-08T04:15:53;-0.80;99.90
32660;DHT22;19064;47.912;12.308;2024-03-08T04:18:20;-0.80;99.90
32660;DHT22;19064;47.912;12.308;2024-03-08T04:20:47;-0.80;99.90
32660;DHT22;19064;47.912;12.308;2024-03-08T04:23:15;-0.80;99.90
32660;DHT22;19064;47.912;12.308;2024-03-08T04:25:43;-0.80;99.90
32660;DHT22;19064;47.912;12.308;2024-03-08T04:28:10;-0.80;99.90
32660;DHT22;19064;47.912;12.308;2024-03-08T04:30:37;-0.80;99.90
32660;DHT22;19064;47.912;12.308;2024-03-08T04:33:05;-0.90;99.90
32660;DHT22;19064;47.912;12.308;2024-03-08T04:35:31;-0.90;99.90
32660;DHT22;19064;47.912;12.308;2024-03-08T04:37:58;-0.90;99.90
32660;DHT22;19064;47.912;12.308;2024-03-08T04:40:26;-0.90;99.90
32660;DHT22;19064;47.912;12.308;2024-03-08T04:42:53;-0.90;99.90
32660;DHT22;19064;47.912;12.308;2024-03-08T04:45:20;-0.90;99.90
32660;DHT22;19064;47.912;12.308;2024-03-08T04:47:47;-0.90;99.90
32660;DHT22;19064;47.912;12.308;2024-03-08T04:50:13;-0.90;99.90
32660;DHT22;19064;47.912;12.308;2024-03-08T04:52:40;-1.00;99.90
32660;DHT22;19064;47.912;12.308;2024-03-08T04:55:07;-0.90;99.90
32660;DHT22;19064;47.912;12.308;2024-03-08T04:57:36;-0.90;99.90
32660;DHT22;19064;47.912;12.308;2024-03-08T05:00:02;-0.90;99.90
32660;DHT22;19064;47.912;12.308;2024-03-08T05:02:34;-0.90;99.90
32660;DHT22;19064;47.912;12.308;2024-03-08T05:05:01;-0.90;99.90
32660;DHT22;19064;47.912;12.308;2024-03-08T05:07:27;-0.90;99.90
32660;DHT22;19064;47.912;12.308;2024-03-08T05:09:54;-0.90;99.90
32660;DHT22;19064;47.912;12.308;2024-03-08T05:12:22;-0.90;99.90
32660;DHT22;19064;47.912;12.308;2024-03-08T05:14:50;-0.90;99.90
32660;DHT22;19064;47.912;12.308;2024-03-08T05:17:17;-0.90;99.90
32660;DHT22;19064;47.912;12.308;2024-03-08T05:19:43;-0.90;99.90
32660;DHT22;19064;47.912;12.308;2024-03-08T05:22:10;-0.90;99.90
32660;DHT22;19064;47.912;12.308;2024-03-08T05:24:37;-0.90;99.90
32660;DHT22;19064;47.912;12.308;2024-03-08T05:27:04;-0.90;99.90
32660;DHT22;19064;47.912;12.308;2024-03-08T05:29:33;-0.90;99.90
32660;DHT22;19064;47.912;12.308;2024-03-08T05:32:02;-0.90;99.90
32660;DHT22;19064;47.912;12.308;2024-03-08T05:34:29;-0.90;99.90
32660;DHT22;19064;47.912;12.308;2024-03-08T05:36:56;-0.90;99.90
32660;DHT22;19064;47.912;12.308;2024-03-08T05:39:24;-0.90;99.90
32660;DHT22;19064;47.912;12.308;2024-03-08T05:41:51;-0.90;99.90
32660;DHT22;19064;47.912;12.308;2024-03-08T05:44:18;-0.90;99.90
32660;DHT22;19064;47.912;12.308;2024-03-08T05:46:45;-0.90;99.90
32660;DHT22;19064;47.912;12.308;2024-03-08T05:49:14;-0.90;99.90
32660;DHT22;19064;47.912;12.308;2024-03-08T05:51:41;-0.90;99.90
32660;DHT22;19064;47.912;12.308;2024-03-08T05:54:09;-1.00;99.90
32660;DHT22;19064;47.912;12.308;2024-03-08T05:56:37;-1.00;99.90
32660;DHT22;19064;47.912;12.308;2024-03-08T05:59:04;-1.00;99.90
32660;DHT22;19064;47.912;12.308;2024-03-08T06:01:30;-0.90;99.90
32660;DHT22;19064;47.912;12.308;2024-03-08T06:03:57;-0.90;99.90
32660;DHT22;19064;47.912;12.308;2024-03-08T06:06:26;-0.90;99.90
32660;DHT22;19064;47.912;12.308;2024-03-08T06:08:53;-0.80;99.90
32660;DHT22;19064;47.912;12.308;2024-03-08T06:11:22;-0.80;99.90
32660;DHT22;19064;47.912;12.308;2024-03-08T06:13:48;-0.80;99.90
32660;DHT22;19064;47.912;12.308;2024-03-08T06:16:16;-0.80;99.90
32660;DHT22;19064;47.912;12.308;2024-03-08T06:18:41;-0.80;99.90
32660;DHT22;19064;47.912;12.308;2024-03-08T06:21:09;-0.80;99.90
32660;DHT22;19064;47.912;12.308;2024-03-08T06:23:38;-0.70;99.90
32660;DHT22;19064;47.912;12.308;2024-03-08T06:26:05;-0.70;99.90
32660;DHT22;19064;47.912;12.308;2024-03-08T06:28:32;-0.70;99.90
32660;DHT22;19064;47.912;12.308;2024-03-08T06:31:00;-0.70;99.90
32660;DHT22;19064;47.912;12.308;2024-03-08T06:33:27;-0.60;99.90
32660;DHT22;19064;47.912;12.308;2024-03-08T06:35:54;-0.60;99.90
32660;DHT22;19064;47.912;12.308;2024-03-08T06:38:22;-0.50;99.90
32660;DHT22;19064;47.912;12.308;2024-03-08T06:40:50;-0.50;99.90
32660;DHT22;19064;47.912;12.308;2024-03-08T06:43:17;-0.40;99.90
32660;DHT22;19064;47.912;12.308;2024-03-08T06:45:44;-0.40;99.90
32660;DHT22;19064;47.912;12.308;2024-03-08T06:48:14;-0.30;99.90
32660;DHT22;19064;47.912;12.308;2024-03-08T06:50:40;0.40;99.90
32660;DHT22;19064;47.912;12.308;2024-03-08T06:53:07;1.10;99.90
32660;DHT22;19064;47.912;12.308;2024-03-08T06:55:34;1.90;99.90
32660;DHT22;19064;47.912;12.308;2024-03-08T06:58:02;2.20;99.90
32660;DHT22;19064;47.912;12.308;2024-03-08T07:00:29;2.30;99.90
32660;DHT22;19064;47.912;12.308;2024-03-08T07:02:55;2.10;99.90
32660;DHT22;19064;47.912;12.308;2024-03-08T07:05:26;2.10;99.90
32660;DHT22;19064;47.912;12.308;2024-03-08T07:07:53;2.10;99.90
32660;DHT22;19064;47.912;12.308;2024-03-08T07:10:20;2.10;99.90
32660;DHT22;19064;47.912;12.308;2024-03-08T07:12:49;1.70;99.90
32660;DHT22;19064;47.912;12.308;2024-03-08T07:15:17;1.50;99.90
32660;DHT22;19064;47.912;12.308;2024-03-08T07:17:45;1.40;99.90
32660;DHT22;19064;47.912;12.308;2024-03-08T07:20:12;1.20;99.90
32660;DHT22;19064;47.912;12.308;2024-03-08T07:22:41;1.20;99.90
32660;DHT22;19064;47.912;12.308;2024-03-08T07:25:08;1.60;99.90
32660;DHT22;19064;47.912;12.308;2024-03-08T07:27:47;1.70;99.90
32660;DHT22;19064;47.912;12.308;2024-03-08T07:30:14;1.80;99.90
32660;DHT22;19064;47.912;12.308;2024-03-08T07:33:03;2.00;99.90
32660;DHT22;19064;47.912;12.308;2024-03-08T07:35:30;1.90;99.90
32660;DHT22;19064;47.912;12.308;2024-03-08T07:37:57;1.90;99.90
32660;DHT22;19064;47.912;12.308;2024-03-08T07:40:25;1.90;99.90
32660;DHT22;19064;47.912;12.308;2024-03-08T07:42:52;2.00;99.90
32660;DHT22;19064;47.912;12.308;2024-03-08T07:45:19;2.10;99.90
32660;DHT22;19064;47.912;12.308;2024-03-08T07:47:48;2.30;99.90
32660;DHT22;19064;47.912;12.308;2024-03-08T07:50:17;2.50;99.90
32660;DHT22;19064;47.912;12.308;2024-03-08T07:52:45;2.60;99.90
32660;DHT22;19064;47.912;12.308;2024-03-08T07:55:11;2.60;99.90
32660;DHT22;19064;47.912;12.308;2024-03-08T07:57:38;2.70;99.90
32660;DHT22;19064;47.912;12.308;2024-03-08T08:00:06;2.70;99.90
32660;DHT22;19064;47.912;12.308;2024-03-08T08:02:33;2.80;99.90
32660;DHT22;19064;47.912;12.308;2024-03-08T08:05:00;2.90;99.90
32660;DHT22;19064;47.912;12.308;2024-03-08T08:07:29;3.10;99.90
32660;DHT22;19064;47.912;12.308;2024-03-08T08:09:55;3.30;99.90
32660;DHT22;19064;47.912;12.308;2024-03-08T08:12:22;3.40;99.90
32660;DHT22;19064;47.912;12.308;2024-03-08T08:14:49;3.60;99.90
32660;DHT22;19064;47.912;12.308;2024-03-08T08:17:16;3.60;99.90
32660;DHT22;19064;47.912;12.308;2024-03-08T08:19:42;4.00;99.90
32660;DHT22;19064;47.912;12.308;2024-03-08T08:22:09;4.10;99.90
32660;DHT22;19064;47.912;12.308;2024-03-08T08:24:38;3.80;99.90
32660;DHT22;19064;47.912;12.308;2024-03-08T08:27:05;3.90;99.90
32660;DHT22;19064;47.912;12.308;2024-03-08T08:29:32;4.20;99.90
32660;DHT22;19064;47.912;12.308;2024-03-08T08:32:00;4.50;99.90
32660;DHT22;19064;47.912;12.308;2024-03-08T08:34:28;4.80;99.90
32660;DHT22;19064;47.912;12.308;2024-03-08T08:36:55;4.90;99.90
32660;DHT22;19064;47.912;12.308;2024-03-08T08:39:22;4.80;99.90
32660;DHT22;19064;47.912;12.308;2024-03-08T08:41:52;4.60;99.90
32660;DHT22;19064;47.912;12.308;2024-03-08T08:44:19;4.70;99.90
32660;DHT22;19064;47.912;12.308;2024-03-08T08:46:46;4.80;99.90
32660;DHT22;19064;47.912;12.308;2024-03-08T08:49:12;5.00;99.90
32660;DHT22;19064;47.912;12.308;2024-03-08T08:51:41;5.20;99.90
32660;DHT22;19064;47.912;12.308;2024-03-08T08:54:08;5.40;99.90
32660;DHT22;19064;47.912;12.308;2024-03-08T08:56:35;5.70;99.90
32660;DHT22;19064;47.912;12.308;2024-03-08T08:59:03;6.10;99.90
32660;DHT22;19064;47.912;12.308;2024-03-08T09:01:30;6.40;99.90
32660;DHT22;19064;47.912;12.308;2024-03-08T09:03:57;6.10;99.90
32660;DHT22;19064;47.912;12.308;2024-03-08T09:06:23;6.00;99.90
32660;DHT22;19064;47.912;12.308;2024-03-08T09:08:50;6.00;99.90
32660;DHT22;19064;47.912;12.308;2024-03-08T09:11:18;6.00;99.90
32660;DHT22;19064;47.912;12.308;2024-03-08T09:13:45;5.90;99.90
32660;DHT22;19064;47.912;12.308;2024-03-08T09:16:13;6.30;99.90
32660;DHT22;19064;47.912;12.308;2024-03-08T09:18:41;6.00;99.90
32660;DHT22;19064;47.912;12.308;2024-03-08T09:21:08;6.30;99.90
32660;DHT22;19064;47.912;12.308;2024-03-08T09:23:35;6.30;99.90
32660;DHT22;19064;47.912;12.308;2024-03-08T09:26:02;6.50;99.90
32660;DHT22;19064;47.912;12.308;2024-03-08T09:28:29;6.30;99.90
32660;DHT22;19064;47.912;12.308;2024-03-08T09:30:56;6.30;99.90
32660;DHT22;19064;47.912;12.308;2024-03-08T09:33:25;6.40;99.90
32660;DHT22;19064;47.912;12.308;2024-03-08T09:35:54;6.50;99.90
32660;DHT22;19064;47.912;12.308;2024-03-08T09:38:23;6.30;99.90
32660;DHT22;19064;47.912;12.308;2024-03-08T09:40:50;6.50;99.90
32660;DHT22;19064;47.912;12.308;2024-03-08T09:43:18;6.60;99.90
32660;DHT22;19064;47.912;12.308;2024-03-08T09:45:45;6.60;99.90
32660;DHT22;19064;47.912;12.308;2024-03-08T09:48:16;6.10;99.90
32660;DHT22;19064;47.912;12.308;2024-03-08T09:50:46;5.90;99.90
32660;DHT22;19064;47.912;12.308;2024-03-08T09:53:13;5.80;99.90
32660;DHT22;19064;47.912;12.308;2024-03-08T09:55:40;5.90;99.90
32660;DHT22;19064;47.912;12.308;2024-03-08T09:58:11;5.80;99.90
32660;DHT22;19064;47.912;12.308;2024-03-08T10:01:02;5.50;99.90
32660;DHT22;19064;47.912;12.308;2024-03-08T10:03:30;5.50;99.90
32660;DHT22;19064;47.912;12.308;2024-03-08T10:05:59;5.40;99.90
32660;DHT22;19064;47.912;12.308;2024-03-08T10:08:26;5.50;99.90
32660;DHT22;19064;47.912;12.308;2024-03-08T10:10:54;5.60;99.90
32660;DHT22;19064;47.912;12.308;2024-03-08T10:13:24;5.80;99.90
32660;DHT22;19064;47.912;12.308;2024-03-08T10:15:52;5.90;99.90
32660;DHT22;19064;47.912;12.308;2024-03-08T10:18:19;6.00;99.90
32660;DHT22;19064;47.912;12.308;2024-03-08T10:20:46;5.90;99.90
32660;DHT22;19064;47.912;12.308;2024-03-08T10:23:14;5.90;99.90
32660;DHT22;19064;47.912;12.308;2024-03-08T10:25:41;5.80;99.90
32660;DHT22;19064;47.912;12.308;2024-03-08T10:28:09;5.80;99.90
32660;DHT22;19064;47.912;12.308;2024-03-08T10:30:36;6.00;99.90
32660;DHT22;19064;47.912;12.308;2024-03-08T10:33:03;6.10;99.90
32660;DHT22;19064;47.912;12.308;2024-03-08T10:35:30;6.10;99.90
32660;DHT22;19064;47.912;12.308;2024-03-08T10:37:57;6.30;99.90
32660;DHT22;19064;47.912;12.308;2024-03-08T10:40:27;6.30;99.90
32660;DHT22;19064;47.912;12.308;2024-03-08T10:42:55;6.30;99.90
32660;DHT22;19064;47.912;12.308;2024-03-08T10:45:35;6.40;99.90
32660;DHT22;19064;47.912;12.308;2024-03-08T10:48:18;6.40;99.90
32660;DHT22;19064;47.912;12.308;2024-03-08T10:50:53;6.50;99.90
32660;DHT22;19064;47.912;12.308;2024-03-08T10:53:21;6.60;99.90
32660;DHT22;19064;47.912;12.308;2024-03-08T10:55:51;6.60;99.90
32660;DHT22;19064;47.912;12.308;2024-03-08T10:58:20;6.70;99.90
32660;DHT22;19064;47.912;12.308;2024-03-08T11:00:47;6.80;99.90
32660;DHT22;19064;47.912;12.308;2024-03-08T11:03:45;6.90;99.90
32660;DHT22;19064;47.912;12.308;2024-03-08T11:06:16;6.80;99.90
32660;DHT22;19064;47.912;12.308;2024-03-08T11:08:44;6.80;99.90
32660;DHT22;19064;47.912;12.308;2024-03-08T11:11:25;6.70;99.90
32660;DHT22;19064;47.912;12.308;2024-03-08T11:13:55;6.80;99.90
32660;DHT22;19064;47.912;12.308;2024-03-08T11:16:38;6.80;99.90
32660;DHT22;19064;47.912;12.308;2024-03-08T11:19:24;6.80;99.90
32660;DHT22;19064;47.912;12.308;2024-03-08T11:22:01;7.00;99.90
32660;DHT22;19064;47.912;12.308;2024-03-08T11:24:31;7.00;99.90
32660;DHT22;19064;47.912;12.308;2024-03-08T11:27:05;6.90;99.90
32660;DHT22;19064;47.912;12.308;2024-03-08T11:29:38;7.00;99.90
32660;DHT22;19064;47.912;12.308;2024-03-08T11:32:10;7.10;99.90
32660;DHT22;19064;47.912;12.308;2024-03-08T11:34:40;7.10;99.90
32660;DHT22;19064;47.912;12.308;2024-03-08T11:37:12;7.00;99.90
32660;DHT22;19064;47.912;12.308;2024-03-08T11:39:41;7.10;99.90
32660;DHT22;19064;47.912;12.308;2024-03-08T11:42:14;7.20;99.90
32660;DHT22;19064;47.912;12.308;2024-03-08T11:44:41;7.30;99.90
32660;DHT22;19064;47.912;12.308;2024-03-08T11:47:09;7.30;99.90
32660;DHT22;19064;47.912;12.308;2024-03-08T11:49:37;7.30;99.90
32660;DHT22;19064;47.912;12.308;2024-03-08T11:52:04;7.40;99.90
32660;DHT22;19064;47.912;12.308;2024-03-08T11:54:31;7.40;99.90
32660;DHT22;19064;47.912;12.308;2024-03-08T11:56:59;7.40;99.90
32660;DHT22;19064;47.912;12.308;2024-03-08T11:59:28;7.40;99.90
32660;DHT22;19064;47.912;12.308;2024-03-08T12:02:01;7.50;99.90
32660;DHT22;19064;47.912;12.308;2024-03-08T12:04:29;7.50;99.90
32660;DHT22;19064;47.912;12.308;2024-03-08T12:06:57;7.50;99.90
32660;DHT22;19064;47.912;12.308;2024-03-08T12:09:26;7.60;99.90
32660;DHT22;19064;47.912;12.308;2024-03-08T12:11:53;7.70;99.90
32660;DHT22;19064;47.912;12.308;2024-03-08T12:14:20;7.60;99.90
32660;DHT22;19064;47.912;12.308;2024-03-08T12:16:50;7.70;99.90
32660;DHT22;19064;47.912;12.308;2024-03-08T12:19:17;7.70;99.90
32660;DHT22;19064;47.912;12.308;2024-03-08T12:21:44;7.80;99.90
32660;DHT22;19064;47.912;12.308;2024-03-08T12:24:15;7.90;99.90
32660;DHT22;19064;47.912;12.308;2024-03-08T12:26:45;8.00;99.90
32660;DHT22;19064;47.912;12.308;2024-03-08T12:29:17;8.00;99.90
32660;DHT22;19064;47.912;12.308;2024-03-08T12:31:46;8.10;99.90
32660;DHT22;19064;47.912;12.308;2024-03-08T12:34:14;8.10;99.90
32660;DHT22;19064;47.912;12.308;2024-03-08T12:36:46;8.10;99.90
32660;DHT22;19064;47.912;12.308;2024-03-08T12:39:16;8.00;99.90
32660;DHT22;19064;47.912;12.308;2024-03-08T12:41:43;8.00;99.90
32660;DHT22;19064;47.912;12.308;2024-03-08T12:44:10;8.10;99.90
32660;DHT22;19064;47.912;12.308;2024-03-08T12:46:38;8.10;99.90
32660;DHT22;19064;47.912;12.308;2024-03-08T12:49:09;8.10;99.90
32660;DHT22;19064;47.912;12.308;2024-03-08T12:51:39;8.10;99.90
32660;DHT22;19064;47.912;12.308;2024-03-08T12:54:08;8.10;99.90
32660;DHT22;19064;47.912;12.308;2024-03-08T12:56:36;8.10;99.90
32660;DHT22;19064;47.912;12.308;2024-03-08T12:59:04;8.20;99.90
32660;DHT22;19064;47.912;12.308;2024-03-08T13:01:31;8.20;99.90
32660;DHT22;19064;47.912;12.308;2024-03-08T13:03:58;8.30;99.90
32660;DHT22;19064;47.912;12.308;2024-03-08T13:06:26;8.30;99.90
32660;DHT22;19064;47.912;12.308;2024-03-08T13:08:55;8.30;99.90
32660;DHT22;19064;47.912;12.308;2024-03-08T13:11:22;8.30;99.90
32660;DHT22;19064;47.912;12.308;2024-03-08T13:13:50;8.30;99.90
32660;DHT22;19064;47.912;12.308;2024-03-08T13:16:17;8.20;99.90
32660;DHT22;19064;47.912;12.308;2024-03-08T13:18:45;8.30;99.90
32660;DHT22;19064;47.912;12.308;2024-03-08T13:21:14;8.40;99.90
32660;DHT22;19064;47.912;12.308;2024-03-08T13:23:44;8.40;99.90
32660;DHT22;19064;47.912;12.308;2024-03-08T13:26:16;8.40;99.90
32660;DHT22;19064;47.912;12.308;2024-03-08T13:28:43;8.40;99.90
32660;DHT22;19064;47.912;12.308;2024-03-08T13:31:10;8.40;99.90
32660;DHT22;19064;47.912;12.308;2024-03-08T13:33:37;8.50;99.90
32660;DHT22;19064;47.912;12.308;2024-03-08T13:36:05;8.40;99.90
32660;DHT22;19064;47.912;12.308;2024-03-08T13:38:40;8.50;99.90
32660;DHT22;19064;47.912;12.308;2024-03-08T13:41:10;8.60;99.90
32660;DHT22;19064;47.912;12.308;2024-03-08T13:43:41;8.60;99.90
32660;DHT22;19064;47.912;12.308;2024-03-08T13:46:08;8.60;99.90
32660;DHT22;19064;47.912;12.308;2024-03-08T13:48:36;8.60;99.90
32660;DHT22;19064;47.912;12.308;2024-03-08T13:51:04;8.70;99.90
32660;DHT22;19064;47.912;12.308;2024-03-08T13:53:31;8.70;99.90
32660;DHT22;19064;47.912;12.308;2024-03-08T13:55:58;8.70;99.90
32660;DHT22;19064;47.912;12.308;2024-03-08T13:58:25;8.70;99.90
32660;DHT22;19064;47.912;12.308;2024-03-08T14:00:53;8.70;99.90
32660;DHT22;19064;47.912;12.308;2024-03-08T14:03:20;8.70;99.90
32660;DHT22;19064;47.912;12.308;2024-03-08T14:05:49;8.60;99.90
32660;DHT22;19064;47.912;12.308;2024-03-08T14:08:15;8.60;99.90
32660;DHT22;19064;47.912;12.308;2024-03-08T14:10:43;8.60;99.90
32660;DHT22;19064;47.912;12.308;2024-03-08T14:13:12;8.70;99.90
32660;DHT22;19064;47.912;12.308;2024-03-08T14:15:41;8.70;99.90
32660;DHT22;19064;47.912;12.308;2024-03-08T14:18:11;8.70;99.90
32660;DHT22;19064;47.912;12.308;2024-03-08T14:20:38;8.70;99.90
32660;DHT22;19064;47.912;12.308;2024-03-08T14:23:05;8.70;99.90
32660;DHT22;19064;47.912;12.308;2024-03-08T14:25:33;8.70;99.90
32660;DHT22;19064;47.912;12.308;2024-03-08T14:28:00;8.70;99.90
32660;DHT22;19064;47.912;12.308;2024-03-08T14:30:29;8.70;99.90
32660;DHT22;19064;47.912;12.308;2024-03-08T14:33:00;8.70;99.90
32660;DHT22;19064;47.912;12.308;2024-03-08T14:35:29;8.80;99.90
32660;DHT22;19064;47.912;12.308;2024-03-08T14:37:56;8.80;99.90
32660;DHT22;19064;47.912;12.308;2024-03-08T14:40:23;8.80;99.90
32660;DHT22;19064;47.912;12.308;2024-03-08T14:42:51;8.70;99.90
32660;DHT22;19064;47.912;12.308;2024-03-08T14:45:18;8.70;99.90
32660;DHT22;19064;47.912;12.308;2024-03-08T14:47:45;8.70;99.90
32660;DHT22;19064;47.912;12.308;2024-03-08T14:50:15;8.70;99.90
32660;DHT22;19064;47.912;12.308;2024-03-08T14:52:43;8.70;99.90
32660;DHT22;19064;47.912;12.308;2024-03-08T14:55:11;8.70;99.90
32660;DHT22;19064;47.912;12.308;2024-03-08T14:57:40;8.70;99.90
32660;DHT22;19064;47.912;12.308;2024-03-08T15:00:07;8.80;99.90
32660;DHT22;19064;47.912;12.308;2024-03-08T15:02:41;8.70;99.90
32660;DHT22;19064;47.912;12.308;2024-03-08T15:05:08;8.80;99.90
32660;DHT22;19064;47.912;12.308;2024-03-08T15:07:37;8.80;99.90
32660;DHT22;19064;47.912;12.308;2024-03-08T15:10:06;8.80;99.90
32660;DHT22;19064;47.912;12.308;2024-03-08T15:12:37;8.80;99.90
32660;DHT22;19064;47.912;12.308;2024-03-08T15:15:06;8.80;99.90
32660;DHT22;19064;47.912;12.308;2024-03-08T15:17:33;8.90;99.90
32660;DHT22;19064;47.912;12.308;2024-03-08T15:20:02;8.70;99.90
32660;DHT22;19064;47.912;12.308;2024-03-08T15:22:29;8.80;99.90
32660;DHT22;19064;47.912;12.308;2024-03-08T15:24:56;8.70;99.90
32660;DHT22;19064;47.912;12.308;2024-03-08T15:27:25;8.70;99.90
32660;DHT22;19064;47.912;12.308;2024-03-08T15:29:52;8.70;99.90
32660;DHT22;19064;47.912;12.308;2024-03-08T15:32:21;8.70;99.90